»·PEaware :: UAL1399 KEGE-KTEX

UAL1399 :: KEGE-KTEX

FLIGHT INFORMATION

Flight Status: Arrived
Operator:
United Airlines
More flights by this operator :: More flights under this callsign
Pilot: David C. (16084)
Aircraft: DEHAVILLAND DASH 8 400
(DH8D)
More flights by this aircraft type
Origin: KEGE Eagle Co Regl
United States
Destination: KTEX Telluride Regl
United States
More flights between these airports :: More routes between these airports
Route: BEVVR1 SPRKT JNC ETL
File this flight plan on PilotEdge
Remarks:
Altitude:
(Current/Filed)
18,000ft
Speed:
(Current/Filed)
321kts
Departed: 06-Jun-23 10:06 AM
Arrived: 06-Jun-23 10:47 AM
Distance/Time
Traveled:
111nm/0:41
Distance/Time
To Go:
Arrived

Flight Plot

Page will automatically refresh every two minutes.

Flight plan parsing failed; only flown route is shown


Map Options




Map Legend


Flown Route
Filed Route
Departure Airport
Arrival Airport
Navaid (VOR, NDB)
Fix

Horizontal Profiles

Position Reports

Time Latitude Longitude Heading Altitude Ground
Speed
06-Jun-23 09:28 39.640980 -106.912162 172 6552ft 0kts
06-Jun-23 09:29 39.640980 -106.912162 172 6552ft 0kts
06-Jun-23 09:30 39.640980 -106.912162 172 6552ft 0kts
06-Jun-23 09:31 39.640980 -106.912162 172 6552ft 0kts
06-Jun-23 09:32 39.640980 -106.912162 172 6552ft 0kts
06-Jun-23 09:33 39.640980 -106.912162 172 6552ft 0kts
06-Jun-23 09:34 39.640980 -106.912162 172 6552ft 0kts
06-Jun-23 09:35 39.640980 -106.912162 172 6552ft 0kts
06-Jun-23 09:36 39.640980 -106.912162 172 6552ft 0kts
06-Jun-23 09:37 39.640980 -106.912162 172 6552ft 0kts
06-Jun-23 09:38 39.640980 -106.912162 172 6552ft 0kts
06-Jun-23 09:39 39.640980 -106.912162 172 6552ft 0kts
06-Jun-23 09:40 39.640980 -106.912162 172 6552ft 0kts
06-Jun-23 09:41 39.640980 -106.912162 172 6552ft 0kts
06-Jun-23 09:42 39.640980 -106.912162 172 6552ft 0kts
06-Jun-23 09:43 39.640980 -106.912162 172 6552ft 0kts
06-Jun-23 09:44 39.640980 -106.912162 172 6552ft 0kts
06-Jun-23 09:45 39.640980 -106.912162 172 6552ft 0kts
06-Jun-23 09:46 39.640980 -106.912162 172 6552ft 0kts
06-Jun-23 09:47 39.640980 -106.912162 172 6552ft 0kts
06-Jun-23 09:48 39.640980 -106.912162 172 6552ft 0kts
06-Jun-23 09:49 39.640980 -106.912162 172 6552ft 0kts
06-Jun-23 09:50 39.640980 -106.912162 172 6552ft 0kts
06-Jun-23 09:51 39.640980 -106.912162 172 6552ft 0kts
06-Jun-23 09:52 39.640980 -106.912162 172 6552ft 0kts
06-Jun-23 09:53 39.640980 -106.912162 172 6552ft 0kts
06-Jun-23 09:54 39.640980 -106.912162 172 6552ft 0kts
06-Jun-23 09:55 39.640980 -106.912162 172 6552ft 0kts
06-Jun-23 09:56 39.641210 -106.912279 141 6552ft 2kts
06-Jun-23 09:57 39.641394 -106.912940 85 6552ft 0kts
06-Jun-23 09:58 39.641393 -106.912964 86 6552ft 0kts
06-Jun-23 09:59 39.641393 -106.912965 86 6552ft 0kts
06-Jun-23 10:00 39.641393 -106.912965 86 6552ft 0kts
06-Jun-23 10:01 39.641394 -106.912945 86 6552ft 1kts
06-Jun-23 10:02 39.642474 -106.908580 81 6552ft 22kts
06-Jun-23 10:03 39.643262 -106.901482 81 6552ft 14kts
06-Jun-23 10:04 39.643463 -106.900350 53 6552ft 0kts
06-Jun-23 10:05 39.642625 -106.917276 262 6565ft 153kts
06-Jun-23 10:06 39.610984 -106.962317 211 8363ft 197kts
06-Jun-23 10:07 39.580688 -107.017963 270 10503ft 211kts
06-Jun-23 10:08 39.602493 -107.088609 315 11919ft 230kts
06-Jun-23 10:09 39.661871 -107.104194 9 13423ft 242kts
06-Jun-23 10:10 39.728126 -107.096421 328 16025ft 245kts
06-Jun-23 10:11 39.771990 -107.165208 303 18158ft 271kts
06-Jun-23 10:12 39.821335 -107.258997 303 18249ft 349kts
06-Jun-23 10:13 39.876069 -107.364496 303 18238ft 353kts
06-Jun-23 10:14 39.930668 -107.470205 301 18235ft 350kts
06-Jun-23 10:15 39.920587 -107.584322 234 18242ft 340kts
06-Jun-23 10:16 39.859649 -107.678312 228 18237ft 340kts
06-Jun-23 10:17 39.795734 -107.769502 227 18238ft 340kts
06-Jun-23 10:18 39.731713 -107.859909 227 18238ft 340kts
06-Jun-23 10:19 39.667611 -107.950093 227 18238ft 340kts
06-Jun-23 10:20 39.603398 -108.040174 227 18223ft 341kts
06-Jun-23 10:21 39.539053 -108.130159 227 18166ft 340kts
06-Jun-23 10:22 39.474864 -108.219661 227 18104ft 338kts
06-Jun-23 10:23 39.411110 -108.308298 227 18081ft 335kts
06-Jun-23 10:24 39.340952 -108.382678 189 18077ft 332kts
06-Jun-23 10:25 39.249455 -108.368053 175 18082ft 333kts
06-Jun-23 10:26 39.157187 -108.357992 177 18064ft 333kts
06-Jun-23 10:27 39.065061 -108.350740 179 18063ft 332kts
06-Jun-23 10:28 38.972963 -108.348583 181 18151ft 330kts
06-Jun-23 10:29 38.880946 -108.347583 180 18311ft 331kts
06-Jun-23 10:30 38.787060 -108.346340 180 18339ft 337kts
06-Jun-23 10:31 38.692972 -108.345078 180 18339ft 340kts
06-Jun-23 10:32 38.598165 -108.343842 180 18338ft 342kts
06-Jun-23 10:33 38.502726 -108.342571 180 18339ft 343kts
06-Jun-23 10:34 38.407283 -108.341303 180 18338ft 344kts
06-Jun-23 10:35 38.313599 -108.339969 180 17836ft 320kts
06-Jun-23 10:36 38.230459 -108.338785 180 16856ft 272kts
06-Jun-23 10:37 38.163270 -108.322530 158 15559ft 230kts
06-Jun-23 10:38 38.107704 -108.293252 159 14394ft 205kts
06-Jun-23 10:39 38.059793 -108.268430 159 13387ft 196kts
06-Jun-23 10:40 38.027931 -108.218352 111 12992ft 192kts
06-Jun-23 10:41 38.008733 -108.155992 111 12914ft 180kts
06-Jun-23 10:42 37.993387 -108.098943 104 12414ft 171kts
06-Jun-23 10:43 37.981575 -108.041043 104 11337ft 169kts
06-Jun-23 10:44 37.969524 -107.983505 104 10262ft 169kts
06-Jun-23 10:45 37.957385 -107.925754 103 9170ft 165kts
06-Jun-23 10:46 37.953071 -107.901238 7 9080ft 6kts
06-Jun-23 10:47 37.954477 -107.902423 13 9080ft 6kts
06-Jun-23 10:48 37.954592 -107.902388 13 9080ft 0kts

Navigation Log

Ident Type
Flight plan parsing failed, navigation log unavailable